Time;durP1;ratioP1;P1;durP2;ratioP2;P2;SDS_P1;SDS_P2;PMS_P1;PMS_P2;Temp;Humidity;BMP_temperature;BMP_pressure;BME280_temperature;BME280_humidity;BME280_pressure;Samples;Min_cycle;Max_cycle;Signal;HPM_P1;HPM_P2
2022/07/03 00:01:08;;;;;;;3.65;1.60;;;;;;;;;;4979871;28;20040;-84
2022/07/03 00:03:34;;;;;;;2.30;1.30;;;;;;;;;;4980408;28;20096;-85
2022/07/03 00:05:59;;;;;;;3.65;1.15;;;;;;;;;;4979983;28;20786;-85
2022/07/03 00:08:25;;;;;;;4.00;1.52;;;;;;;;;;4979923;28;20068;-85
2022/07/03 00:10:50;;;;;;;4.43;1.52;;;;;;;;;;5012520;28;20034;-84
2022/07/03 00:13:16;;;;;;;3.65;1.73;;;;;;;;;;4979985;28;20041;-85
2022/07/03 00:15:41;;;;;;;3.42;1.48;;;;;;;;;;5012072;28;20088;-84
2022/07/03 00:18:07;;;;;;;5.20;1.58;;;;;;;;;;4979839;28;20050;-84
2022/07/03 00:20:40;;;;;;;3.33;1.65;;;;;;;;;;4997937;28;20043;-85
2022/07/03 00:23:09;;;;;;;2.17;1.20;;;;;;;;;;5012080;28;20042;-84
2022/07/03 00:25:34;;;;;;;2.72;1.20;;;;;;;;;;5012443;28;20084;-85
2022/07/03 00:28:01;;;;;;;3.88;1.38;;;;;;;;;;5012178;28;20128;-84
2022/07/03 00:30:26;;;;;;;4.07;1.98;;;;;;;;;;5011952;28;20480;-85
2022/07/03 00:32:52;;;;;;;2.47;0.88;;;;;;;;;;5029555;28;20114;-85
2022/07/03 00:35:17;;;;;;;3.00;1.40;;;;;;;;;;4982367;28;20029;-85
2022/07/03 00:37:43;;;;;;;2.97;1.38;;;;;;;;;;4998757;28;20049;-84
2022/07/03 00:40:09;;;;;;;3.00;1.17;;;;;;;;;;5031534;28;20041;-84
2022/07/03 00:42:37;;;;;;;3.50;1.50;;;;;;;;;;4998892;28;20514;-84
2022/07/03 00:45:03;;;;;;;4.22;1.55;;;;;;;;;;5027842;28;20030;-84
2022/07/03 00:47:29;;;;;;;3.03;1.23;;;;;;;;;;5011677;28;20101;-85
2022/07/03 00:49:57;;;;;;;2.60;1.20;;;;;;;;;;5025080;28;20091;-85
2022/07/03 00:52:23;;;;;;;3.53;1.30;;;;;;;;;;5035372;28;20511;-85
2022/07/03 00:54:53;;;;;;;4.15;1.65;;;;;;;;;;5018714;28;20035;-84
2022/07/03 00:57:20;;;;;;;2.90;1.25;;;;;;;;;;5034398;28;20121;-85
2022/07/03 00:59:45;;;;;;;3.25;1.20;;;;;;;;;;5033995;28;20601;-84
2022/07/03 01:02:29;;;;;;;3.47;1.20;;;;;;;;;;5034481;28;20032;-85
2022/07/03 01:05:22;;;;;;;3.40;1.55;;;;;;;;;;5050827;28;20483;-85
2022/07/03 01:07:55;;;;;;;3.08;1.17;;;;;;;;;;5033712;28;20052;-84
2022/07/03 01:10:42;;;;;;;2.70;1.20;;;;;;;;;;5035336;28;20040;-85
2022/07/03 01:13:13;;;;;;;3.25;1.10;;;;;;;;;;5050952;28;20039;-84
2022/07/03 01:16:10;;;;;;;2.38;1.20;;;;;;;;;;5034352;28;20043;-86
2022/07/03 01:18:48;;;;;;;2.50;0.82;;;;;;;;;;5050623;28;20116;-84
2022/07/03 01:21:36;;;;;;;2.60;1.17;;;;;;;;;;5023492;28;20047;-85
2022/07/03 01:24:10;;;;;;;2.13;0.98;;;;;;;;;;5030714;28;20033;-84
2022/07/03 01:26:38;;;;;;;2.70;1.05;;;;;;;;;;5030669;28;20048;-84
2022/07/03 01:29:07;;;;;;;2.33;1.08;;;;;;;;;;5014394;28;20033;-84
2022/07/03 01:31:32;;;;;;;3.13;0.95;;;;;;;;;;4981919;28;20519;-85
2022/07/03 01:33:59;;;;;;;2.28;1.05;;;;;;;;;;4997632;28;20095;-84
2022/07/03 01:36:25;;;;;;;3.55;0.93;;;;;;;;;;5014169;28;20042;-84
2022/07/03 01:38:50;;;;;;;2.85;1.23;;;;;;;;;;5030365;28;20052;-85
2022/07/03 01:41:16;;;;;;;5.45;1.38;;;;;;;;;;5030722;28;20033;-83
2022/07/03 01:43:44;;;;;;;2.00;1.00;;;;;;;;;;5014091;28;20037;-84
2022/07/03 01:46:10;;;;;;;2.03;0.93;;;;;;;;;;5013902;28;20507;-84
2022/07/03 01:48:35;;;;;;;3.03;1.00;;;;;;;;;;5013823;28;20083;-84
2022/07/03 01:51:00;;;;;;;2.30;1.23;;;;;;;;;;5010656;28;20081;-83
2022/07/03 01:53:27;;;;;;;2.80;0.90;;;;;;;;;;5043759;28;20519;-83
2022/07/03 01:55:58;;;;;;;3.50;1.00;;;;;;;;;;5010839;28;20040;-83
2022/07/03 01:58:24;;;;;;;3.85;0.95;;;;;;;;;;5043896;28;20034;-83
2022/07/03 02:01:13;;;;;;;1.95;0.80;;;;;;;;;;5043693;28;20413;-83
2022/07/03 02:03:40;;;;;;;4.35;1.02;;;;;;;;;;5027053;28;20045;-84
2022/07/03 02:06:14;;;;;;;3.28;1.17;;;;;;;;;;5010710;28;20484;-82
2022/07/03 02:08:53;;;;;;;2.35;0.98;;;;;;;;;;5027936;28;20042;-84
2022/07/03 02:11:20;;;;;;;2.85;1.17;;;;;;;;;;5011126;28;20030;-84
2022/07/03 02:13:55;;;;;;;1.67;0.68;;;;;;;;;;5043534;28;20069;-84
2022/07/03 02:16:22;;;;;;;1.65;0.82;;;;;;;;;;5026791;28;20088;-83
2022/07/03 02:19:07;;;;;;;3.58;1.10;;;;;;;;;;5045376;28;20084;-83
2022/07/03 02:21:32;;;;;;;3.15;0.98;;;;;;;;;;5009347;28;20132;-83
2022/07/03 02:24:03;;;;;;;3.40;1.13;;;;;;;;;;4982052;28;20476;-84
2022/07/03 02:26:33;;;;;;;3.80;0.90;;;;;;;;;;4965673;28;20030;-84
2022/07/03 02:29:04;;;;;;;2.85;1.15;;;;;;;;;;5014253;28;20040;-84
2022/07/03 02:31:54;;;;;;;1.57;0.80;;;;;;;;;;5014586;28;20041;-85
2022/07/03 02:34:23;;;;;;;2.45;0.60;;;;;;;;;;5030368;28;20060;-83
2022/07/03 02:36:50;;;;;;;2.60;0.75;;;;;;;;;;4982168;28;20038;-84
2022/07/03 02:39:35;;;;;;;3.72;1.05;;;;;;;;;;5014114;28;20042;-83
2022/07/03 02:42:04;;;;;;;2.28;0.90;;;;;;;;;;5014142;28;20473;-85
2022/07/03 02:44:50;;;;;;;2.05;0.80;;;;;;;;;;4986306;28;20064;-84
2022/07/03 02:47:18;;;;;;;2.10;1.05;;;;;;;;;;5017004;28;20124;-85
2022/07/03 02:50:11;;;;;;;3.13;1.40;;;;;;;;;;5038780;28;20416;-85
2022/07/03 02:52:42;;;;;;;2.58;1.25;;;;;;;;;;5055572;28;20090;-84
2022/07/03 02:55:34;;;;;;;2.50;1.10;;;;;;;;;;5070265;28;20091;-85
2022/07/03 02:58:35;;;;;;;3.63;1.10;;;;;;;;;;5053382;28;20091;-84
2022/07/03 03:01:15;;;;;;;2.88;1.40;;;;;;;;;;5053308;28;20507;-84
2022/07/03 03:03:45;;;;;;;2.72;0.88;;;;;;;;;;5036843;28;20033;-84
2022/07/03 03:06:14;;;;;;;3.22;1.15;;;;;;;;;;5036851;28;20071;-84
2022/07/03 03:08:47;;;;;;;2.20;0.98;;;;;;;;;;5019995;28;20037;-84
2022/07/03 03:11:32;;;;;;;3.22;0.80;;;;;;;;;;5053416;28;20059;-84
2022/07/03 03:13:57;;;;;;;3.63;1.30;;;;;;;;;;5041927;28;20041;-84
2022/07/03 03:16:23;;;;;;;3.85;1.38;;;;;;;;;;5029738;28;20038;-84
2022/07/03 03:18:48;;;;;;;1.80;1.10;;;;;;;;;;5013050;28;20118;-84
2022/07/03 03:21:16;;;;;;;3.20;1.20;;;;;;;;;;5025625;28;20595;-84
2022/07/03 03:23:48;;;;;;;2.13;1.05;;;;;;;;;;5033179;28;20499;-84
2022/07/03 03:26:14;;;;;;;3.65;0.90;;;;;;;;;;5049680;28;20033;-84
2022/07/03 03:28:40;;;;;;;2.70;1.08;;;;;;;;;;5032936;28;20128;-84
2022/07/03 03:31:08;;;;;;;1.77;1.20;;;;;;;;;;5048513;28;20059;-84
2022/07/03 03:33:40;;;;;;;2.67;0.98;;;;;;;;;;5032865;28;20045;-85
2022/07/03 03:36:06;;;;;;;2.30;1.00;;;;;;;;;;5033131;28;20029;-85
2022/07/03 03:38:33;;;;;;;2.50;0.90;;;;;;;;;;5032643;28;20042;-85
2022/07/03 03:40:58;;;;;;;3.50;1.27;;;;;;;;;;5049420;28;20124;-85
2022/07/03 03:43:24;;;;;;;3.25;1.30;;;;;;;;;;5032599;28;20033;-85
2022/07/03 03:45:49;;;;;;;3.28;1.23;;;;;;;;;;5016154;28;20041;-85
2022/07/03 03:48:17;;;;;;;3.15;1.33;;;;;;;;;;5032542;28;20038;-85
2022/07/03 03:50:43;;;;;;;3.13;0.90;;;;;;;;;;5046086;28;20040;-85
2022/07/03 03:53:10;;;;;;;4.72;1.38;;;;;;;;;;5035985;28;20033;-85
2022/07/03 03:55:35;;;;;;;2.13;0.90;;;;;;;;;;5020057;28;20037;-85
2022/07/03 03:58:02;;;;;;;2.10;0.90;;;;;;;;;;5035722;28;20087;-85
2022/07/03 04:00:27;;;;;;;2.95;1.00;;;;;;;;;;5052203;28;20100;-85
2022/07/03 04:02:53;;;;;;;2.92;0.90;;;;;;;;;;5035363;28;20029;-85
2022/07/03 04:05:18;;;;;;;4.82;1.38;;;;;;;;;;5035580;28;20032;-85
2022/07/03 04:07:44;;;;;;;3.42;1.17;;;;;;;;;;5027673;28;20044;-85
2022/07/03 04:10:09;;;;;;;2.47;1.08;;;;;;;;;;5029723;28;20103;-85
2022/07/03 04:12:35;;;;;;;4.13;1.20;;;;;;;;;;4996674;28;20095;-85
2022/07/03 04:15:00;;;;;;;3.15;1.25;;;;;;;;;;4996302;28;20034;-86
2022/07/03 04:17:27;;;;;;;3.47;1.05;;;;;;;;;;4979827;28;20056;-85
2022/07/03 04:19:52;;;;;;;4.32;1.70;;;;;;;;;;5012470;28;20427;-85
2022/07/03 04:22:18;;;;;;;3.38;1.42;;;;;;;;;;4996111;28;20128;-86
2022/07/03 04:24:45;;;;;;;3.88;0.98;;;;;;;;;;5029305;28;20038;-86
2022/07/03 04:27:11;;;;;;;2.80;1.00;;;;;;;;;;5012626;28;20048;-84
2022/07/03 04:29:36;;;;;;;2.22;0.80;;;;;;;;;;5028400;28;20120;-84
2022/07/03 04:32:02;;;;;;;3.15;0.95;;;;;;;;;;5011929;28;20042;-84
2022/07/03 04:34:28;;;;;;;2.75;0.85;;;;;;;;;;4995726;28;20041;-84
2022/07/03 04:36:53;;;;;;;4.50;1.33;;;;;;;;;;5028344;28;20033;-85
2022/07/03 04:39:19;;;;;;;2.15;1.00;;;;;;;;;;5028210;28;20034;-84
2022/07/03 04:41:44;;;;;;;2.20;1.05;;;;;;;;;;5027927;28;20391;-84
2022/07/03 04:44:10;;;;;;;3.55;1.52;;;;;;;;;;5030393;28;20038;-84
2022/07/03 04:46:35;;;;;;;3.17;1.40;;;;;;;;;;5015126;28;20041;-84
2022/07/03 04:49:00;;;;;;;4.15;0.90;;;;;;;;;;5015041;28;20044;-83
2022/07/03 04:51:26;;;;;;;1.85;1.00;;;;;;;;;;5011608;28;20068;-84
2022/07/03 04:53:51;;;;;;;3.75;0.98;;;;;;;;;;5028276;28;20427;-83
2022/07/03 04:56:18;;;;;;;4.32;1.55;;;;;;;;;;5028359;28;20049;-84
2022/07/03 04:58:44;;;;;;;4.10;1.17;;;;;;;;;;5044398;28;20168;-85
2022/07/03 05:01:10;;;;;;;4.25;1.38;;;;;;;;;;5011699;28;20547;-84
2022/07/03 05:03:35;;;;;;;3.20;1.13;;;;;;;;;;4997141;28;20030;-87
2022/07/03 05:06:02;;;;;;;4.55;1.23;;;;;;;;;;5011251;28;20038;-86
2022/07/03 05:08:27;;;;;;;5.00;1.20;;;;;;;;;;5011829;28;20034;-85
2022/07/03 05:10:53;;;;;;;5.90;1.20;;;;;;;;;;5028195;28;20409;-85
2022/07/03 05:13:18;;;;;;;3.67;1.35;;;;;;;;;;5011634;28;20037;-86
2022/07/03 05:15:45;;;;;;;2.60;0.95;;;;;;;;;;4962419;28;20034;-84
2022/07/03 05:18:10;;;;;;;4.03;1.13;;;;;;;;;;5014238;28;20061;-85
2022/07/03 05:20:37;;;;;;;4.32;1.40;;;;;;;;;;5030243;28;20103;-86
2022/07/03 05:23:02;;;;;;;2.83;1.23;;;;;;;;;;4997764;28;20076;-86
2022/07/03 05:25:30;;;;;;;3.00;1.20;;;;;;;;;;5015006;28;20030;-85
2022/07/03 05:27:57;;;;;;;5.93;1.20;;;;;;;;;;5031989;28;20040;-86
2022/07/03 05:30:23;;;;;;;2.40;1.00;;;;;;;;;;5016046;28;20140;-86
2022/07/03 05:32:50;;;;;;;5.10;1.48;;;;;;;;;;4982257;28;20033;-86
2022/07/03 05:35:16;;;;;;;3.58;1.48;;;;;;;;;;5031243;28;20045;-87
2022/07/03 05:37:41;;;;;;;4.03;1.10;;;;;;;;;;5014702;28;20040;-85
2022/07/03 05:40:09;;;;;;;3.65;1.40;;;;;;;;;;5031169;28;20037;-86
2022/07/03 05:42:36;;;;;;;3.67;1.33;;;;;;;;;;4998492;28;20033;-87
2022/07/03 05:45:02;;;;;;;3.03;1.20;;;;;;;;;;5014798;28;20523;-88
2022/07/03 05:47:29;;;;;;;2.55;1.15;;;;;;;;;;4982053;28;20120;-85
2022/07/03 05:49:54;;;;;;;2.50;1.00;;;;;;;;;;5021385;28;20052;-84
2022/07/03 05:52:21;;;;;;;2.83;1.00;;;;;;;;;;5034054;28;20032;-87
2022/07/03 05:54:47;;;;;;;2.85;1.20;;;;;;;;;;5034174;28;20102;-85
2022/07/03 05:57:13;;;;;;;4.07;1.17;;;;;;;;;;5050631;28;20045;-86
2022/07/03 05:59:38;;;;;;;2.58;1.02;;;;;;;;;;5050427;28;20045;-85
2022/07/03 06:02:04;;;;;;;3.05;0.90;;;;;;;;;;5033836;28;20041;-85
2022/07/03 06:04:30;;;;;;;3.13;0.90;;;;;;;;;;5050520;28;20566;-86
2022/07/03 06:06:56;;;;;;;3.95;1.02;;;;;;;;;;5035989;28;20040;-85
2022/07/03 06:09:22;;;;;;;2.63;0.95;;;;;;;;;;5035036;28;20037;-87
2022/07/03 06:11:48;;;;;;;3.83;1.00;;;;;;;;;;5019338;28;20154;-86
2022/07/03 06:14:14;;;;;;;5.07;1.48;;;;;;;;;;5018161;28;20059;-87
2022/07/03 06:16:40;;;;;;;2.83;1.23;;;;;;;;;;5017477;28;20029;-87
2022/07/03 06:19:05;;;;;;;5.28;1.10;;;;;;;;;;5021487;28;20052;-87
2022/07/03 06:21:31;;;;;;;2.50;0.88;;;;;;;;;;5027566;28;20034;-86
2022/07/03 06:23:57;;;;;;;3.38;1.23;;;;;;;;;;5011292;28;20048;-87
2022/07/03 06:26:23;;;;;;;6.78;1.40;;;;;;;;;;4994833;28;20033;-86
2022/07/03 06:28:48;;;;;;;6.38;1.45;;;;;;;;;;5010890;28;20038;-86
2022/07/03 06:31:14;;;;;;;3.90;1.27;;;;;;;;;;4994307;28;20030;-86
2022/07/03 06:33:41;;;;;;;2.75;0.98;;;;;;;;;;5010907;28;20057;-87
2022/07/03 06:36:07;;;;;;;2.42;0.73;;;;;;;;;;5010577;28;20038;-86
2022/07/03 06:38:33;;;;;;;3.78;1.00;;;;;;;;;;5027286;28;20037;-87
2022/07/03 06:40:58;;;;;;;2.28;1.02;;;;;;;;;;5010853;28;20514;-86
2022/07/03 06:43:24;;;;;;;3.17;1.00;;;;;;;;;;5010343;28;20073;-86
2022/07/03 06:45:49;;;;;;;6.65;1.17;;;;;;;;;;5011447;28;20049;-85
2022/07/03 06:48:15;;;;;;;4.45;1.08;;;;;;;;;;5028339;28;20040;-86
2022/07/03 06:50:40;;;;;;;2.25;0.88;;;;;;;;;;5012249;28;20514;-85
2022/07/03 06:53:07;;;;;;;2.10;0.95;;;;;;;;;;4996536;28;20045;-86
2022/07/03 06:55:32;;;;;;;6.75;1.45;;;;;;;;;;5030084;28;20029;-87
2022/07/03 06:57:58;;;;;;;3.88;0.90;;;;;;;;;;4997908;28;20106;-85
2022/07/03 07:00:23;;;;;;;2.70;0.80;;;;;;;;;;5015845;28;20025;-86
2022/07/03 07:02:49;;;;;;;4.32;1.17;;;;;;;;;;4982653;28;20043;-87
2022/07/03 07:05:15;;;;;;;4.00;1.08;;;;;;;;;;5002536;28;20032;-86
2022/07/03 07:07:41;;;;;;;6.13;1.00;;;;;;;;;;5020598;28;20091;-83
2022/07/03 07:10:06;;;;;;;2.67;0.70;;;;;;;;;;5020377;28;20029;-85
2022/07/03 07:12:32;;;;;;;5.10;1.42;;;;;;;;;;5002183;28;20100;-86
2022/07/03 07:14:57;;;;;;;1.30;0.50;;;;;;;;;;4986554;28;20039;-84
2022/07/03 07:17:23;;;;;;;2.58;0.95;;;;;;;;;;5004636;28;20046;-83
2022/07/03 07:19:48;;;;;;;3.00;0.50;;;;;;;;;;5035024;28;20044;-85
2022/07/03 07:22:14;;;;;;;4.20;0.60;;;;;;;;;;5016601;28;20038;-86
2022/07/03 07:24:39;;;;;;;1.77;0.30;;;;;;;;;;5009493;28;20030;-86
2022/07/03 07:27:04;;;;;;;2.13;0.40;;;;;;;;;;4997267;28;20040;-86
2022/07/03 07:29:30;;;;;;;2.80;0.73;;;;;;;;;;4997408;28;20056;-86
2022/07/03 07:31:55;;;;;;;1.75;0.20;;;;;;;;;;5019868;28;20473;-86
2022/07/03 07:34:21;;;;;;;0.90;0.40;;;;;;;;;;5019909;28;20033;-86
2022/07/03 07:36:46;;;;;;;1.38;0.22;;;;;;;;;;5003820;28;20041;-86
2022/07/03 07:39:12;;;;;;;1.27;0.73;;;;;;;;;;5017200;28;20037;-85
2022/07/03 07:41:38;;;;;;;1.65;0.80;;;;;;;;;;5033022;28;20033;-86
2022/07/03 07:44:03;;;;;;;0.77;0.20;;;;;;;;;;4999052;28;20053;-85
2022/07/03 07:46:29;;;;;;;1.60;0.65;;;;;;;;;;5015859;28;20026;-85
2022/07/03 07:48:54;;;;;;;1.15;0.28;;;;;;;;;;5016273;28;20034;-86
2022/07/03 07:51:20;;;;;;;1.80;0.28;;;;;;;;;;5029583;28;20155;-85
2022/07/03 07:53:46;;;;;;;0.85;0.20;;;;;;;;;;5029358;28;20097;-85
2022/07/03 07:56:11;;;;;;;0.98;0.35;;;;;;;;;;5014731;28;20045;-85
2022/07/03 07:58:36;;;;;;;2.17;0.60;;;;;;;;;;5016196;28;20496;-84
2022/07/03 08:06:30;;;;;;;1.30;0.30;;;;;;;;;;5051508;28;20034;-84
2022/07/03 08:08:55;;;;;;;1.17;0.20;;;;;;;;;;5015591;28;20115;-84
2022/07/03 08:11:21;;;;;;;1.55;0.20;;;;;;;;;;5015969;28;20052;-85
2022/07/03 08:13:46;;;;;;;1.67;0.10;;;;;;;;;;5015722;28;20459;-85
2022/07/03 08:16:12;;;;;;;1.20;0.38;;;;;;;;;;5031154;28;20470;-85
2022/07/03 08:18:38;;;;;;;0.43;0.20;;;;;;;;;;5011993;28;20045;-85
2022/07/03 08:21:03;;;;;;;0.82;0.20;;;;;;;;;;4996258;28;20507;-85
2022/07/03 08:23:29;;;;;;;1.38;0.35;;;;;;;;;;4963782;28;20523;-85
2022/07/03 08:25:54;;;;;;;2.03;0.17;;;;;;;;;;5012361;28;20038;-85
2022/07/03 08:28:20;;;;;;;0.82;0.10;;;;;;;;;;5011954;28;20508;-85
2022/07/03 08:30:45;;;;;;;2.53;0.30;;;;;;;;;;4987816;28;20033;-85
2022/07/03 08:33:10;;;;;;;2.08;0.20;;;;;;;;;;5002609;28;20033;-85
2022/07/03 08:35:36;;;;;;;3.70;0.90;;;;;;;;;;5034810;28;20124;-85
2022/07/03 08:38:01;;;;;;;17.00;10.25;;;;;;;;;;5018525;28;20511;-86
2022/07/03 08:40:27;;;;;;;9.63;7.25;;;;;;;;;;5018829;28;20036;-85
2022/07/03 08:42:54;;;;;;;6.38;2.60;;;;;;;;;;5002523;28;20028;-85
2022/07/03 08:45:20;;;;;;;2.97;1.98;;;;;;;;;;5003926;28;20066;-86
2022/07/03 08:47:47;;;;;;;1.63;0.60;;;;;;;;;;4995551;28;20068;-86
2022/07/03 08:50:15;;;;;;;1.58;0.30;;;;;;;;;;5037812;28;20096;-86
2022/07/03 08:52:41;;;;;;;1.05;0.20;;;;;;;;;;4998817;28;20108;-85
2022/07/03 08:55:07;;;;;;;1.60;0.30;;;;;;;;;;4982844;28;20060;-86
2022/07/03 08:57:32;;;;;;;0.73;0.20;;;;;;;;;;4998771;28;20041;-85
2022/07/03 08:59:58;;;;;;;1.52;0.30;;;;;;;;;;4998372;28;20040;-84
2022/07/03 09:02:23;;;;;;;0.35;0.10;;;;;;;;;;4998435;28;20589;-86
2022/07/03 09:04:49;;;;;;;0.93;0.35;;;;;;;;;;5014549;28;20033;-85
2022/07/03 09:07:14;;;;;;;2.05;0.30;;;;;;;;;;4982148;28;20029;-86
2022/07/03 09:09:40;;;;;;;2.05;0.50;;;;;;;;;;4998853;28;20396;-85
2022/07/03 09:12:05;;;;;;;0.70;0.15;;;;;;;;;;5014705;28;20388;-85
2022/07/03 09:14:31;;;;;;;0.85;0.20;;;;;;;;;;5015050;28;20091;-85
2022/07/03 09:16:56;;;;;;;0.63;0.13;;;;;;;;;;5014316;28;20486;-83
2022/07/03 09:19:47;;;;;;;0.70;0.20;;;;;;;;;;4994340;28;20524;-84
2022/07/03 09:22:22;;;;;;;2.65;0.60;;;;;;;;;;5011462;28;20088;-83
2022/07/03 09:24:51;;;;;;;1.77;0.25;;;;;;;;;;5011488;28;20048;-84
2022/07/03 09:27:17;;;;;;;1.70;0.50;;;;;;;;;;5027284;28;20030;-85
2022/07/03 09:30:06;;;;;;;2.00;0.50;;;;;;;;;;5010894;28;20108;-84
2022/07/03 09:32:38;;;;;;;2.72;0.35;;;;;;;;;;5050256;28;20037;-83
2022/07/03 09:35:09;;;;;;;;;;;;;;;;;;5050198;28;20083;-84
2022/07/03 09:37:34;;;;;;;0.98;0.20;;;;;;;;;;5050375;28;20394;-84
2022/07/03 09:40:02;;;;;;;1.40;0.40;;;;;;;;;;5017355;28;20045;-84
2022/07/03 09:42:27;;;;;;;0.73;0.10;;;;;;;;;;5018181;28;20086;-85
2022/07/03 09:44:53;;;;;;;2.53;0.50;;;;;;;;;;4993427;28;20029;-84
2022/07/03 09:47:23;;;;;;;1.25;0.50;;;;;;;;;;5030694;28;20103;-84
2022/07/03 09:49:52;;;;;;;1.52;0.50;;;;;;;;;;5030214;28;20038;-85
2022/07/03 09:52:39;;;;;;;1.40;0.30;;;;;;;;;;5064113;28;20045;-85
2022/07/03 09:55:11;;;;;;;1.88;0.32;;;;;;;;;;5030728;28;20033;-85
2022/07/03 09:57:44;;;;;;;1.52;0.30;;;;;;;;;;5014205;28;20037;-85
2022/07/03 10:00:11;;;;;;;1.13;0.30;;;;;;;;;;5047362;28;20030;-87
2022/07/03 10:02:50;;;;;;;1.05;0.30;;;;;;;;;;5064357;28;20025;-87
2022/07/03 10:05:16;;;;;;;1.17;0.40;;;;;;;;;;5030283;28;20041;-88
2022/07/03 10:07:55;;;;;;;1.67;0.20;;;;;;;;;;5014279;28;20041;-87
2022/07/03 10:10:22;;;;;;;0.43;0.20;;;;;;;;;;5030595;28;20026;-86
2022/07/03 10:12:51;;;;;;;1.65;0.63;;;;;;;;;;5014201;28;20573;-84
2022/07/03 10:15:17;;;;;;;2.15;0.60;;;;;;;;;;5030447;28;20184;-87
2022/07/03 10:17:42;;;;;;;0.50;0.30;;;;;;;;;;5030445;28;20483;-87
2022/07/03 10:20:11;;;;;;;1.48;0.40;;;;;;;;;;5026465;28;20034;-87
2022/07/03 10:22:37;;;;;;;0.88;0.30;;;;;;;;;;4993678;28;20413;-87
2022/07/03 10:25:02;;;;;;;1.48;0.30;;;;;;;;;;5024900;28;20041;-86
2022/07/03 10:27:28;;;;;;;0.82;0.30;;;;;;;;;;4992767;28;20037;-86
2022/07/03 10:29:53;;;;;;;2.63;0.50;;;;;;;;;;5009931;28;20038;-86
2022/07/03 10:32:19;;;;;;;1.13;0.30;;;;;;;;;;5010768;28;20114;-86
2022/07/03 10:34:44;;;;;;;1.58;0.30;;;;;;;;;;4994166;28;20084;-86
2022/07/03 10:37:09;;;;;;;2.55;0.40;;;;;;;;;;5010102;28;20499;-86
2022/07/03 10:39:52;;;;;;;1.35;0.20;;;;;;;;;;5011235;28;20069;-86
2022/07/03 10:45:19;;;;;;;1.17;0.40;;;;;;;;;;5022748;28;20100;-86
2022/07/03 10:47:46;;;;;;;1.98;0.40;;;;;;;;;;5014512;28;20113;-86
2022/07/03 10:50:20;;;;;;;1.83;0.30;;;;;;;;;;5019776;28;20050;-86
2022/07/03 10:52:45;;;;;;;0.22;0.10;;;;;;;;;;5013946;28;20512;-86
2022/07/03 10:55:12;;;;;;;0.65;0.20;;;;;;;;;;5030583;28;20099;-86
2022/07/03 10:57:38;;;;;;;0.57;0.43;;;;;;;;;;5030321;28;20045;-85
2022/07/03 11:00:14;;;;;;;0.95;0.50;;;;;;;;;;5030048;28;20216;-85
2022/07/03 11:02:40;;;;;;;1.80;0.20;;;;;;;;;;5029632;28;20495;-85
2022/07/03 11:05:06;;;;;;;0.77;0.30;;;;;;;;;;5046738;28;20103;-85
2022/07/03 11:07:50;;;;;;;1.00;0.17;;;;;;;;;;5046676;28;20427;-86
2022/07/03 11:10:16;;;;;;;0.98;0.20;;;;;;;;;;5044451;28;20412;-85
2022/07/03 11:12:58;;;;;;;1.52;0.20;;;;;;;;;;5047025;28;20038;-85
2022/07/03 11:15:29;;;;;;;1.13;0.20;;;;;;;;;;5046760;28;20029;-86
2022/07/03 11:18:09;;;;;;;0.85;0.30;;;;;;;;;;5029765;28;20038;-85
2022/07/03 11:20:39;;;;;;;1.33;0.22;;;;;;;;;;5013348;28;20049;-86
2022/07/03 11:23:05;;;;;;;2.28;0.52;;;;;;;;;;5030050;28;20030;-85
2022/07/03 11:25:43;;;;;;;2.38;0.20;;;;;;;;;;5013652;28;20476;-85
2022/07/03 11:28:31;;;;;;;1.90;0.17;;;;;;;;;;5013510;28;20066;-85
2022/07/03 11:31:15;;;;;;;1.33;0.17;;;;;;;;;;5029544;28;20042;-85
2022/07/03 11:33:53;;;;;;;1.17;0.30;;;;;;;;;;5013412;28;20038;-85
2022/07/03 11:36:20;;;;;;;0.43;0.20;;;;;;;;;;5013607;28;20122;-85
2022/07/03 11:38:55;;;;;;;0.98;0.20;;;;;;;;;;5013098;28;20374;-85
2022/07/03 11:41:21;;;;;;;1.10;0.30;;;;;;;;;;5029471;28;20042;-85
2022/07/03 11:43:50;;;;;;;0.65;0.30;;;;;;;;;;4997013;28;20038;-85
2022/07/03 11:46:24;;;;;;;2.45;0.30;;;;;;;;;;5000103;28;20510;-85
2022/07/03 11:48:49;;;;;;;0.60;0.20;;;;;;;;;;5016746;28;20040;-85
2022/07/03 11:51:15;;;;;;;0.98;0.45;;;;;;;;;;5014787;28;20064;-85
2022/07/03 11:53:41;;;;;;;0.80;0.20;;;;;;;;;;5015974;28;20029;-85
2022/07/03 11:56:15;;;;;;;1.40;0.40;;;;;;;;;;5000186;28;20041;-85
2022/07/03 11:58:41;;;;;;;0.70;0.20;;;;;;;;;;5016413;28;20073;-85
2022/07/03 12:01:07;;;;;;;0.57;0.20;;;;;;;;;;5032531;28;20067;-85
2022/07/03 12:03:33;;;;;;;0.50;0.28;;;;;;;;;;4999874;28;20034;-85
2022/07/03 12:05:58;;;;;;;1.98;1.40;;;;;;;;;;5032251;28;20042;-85
2022/07/03 12:08:28;;;;;;;0.93;0.28;;;;;;;;;;4999359;28;20040;-85
2022/07/03 12:11:09;;;;;;;0.70;0.20;;;;;;;;;;5016399;28;20454;-85
2022/07/03 12:13:34;;;;;;;0.40;0.25;;;;;;;;;;4999969;28;20578;-85
2022/07/03 12:16:03;;;;;;;0.40;0.13;;;;;;;;;;4999356;28;20133;-85
2022/07/03 12:18:48;;;;;;;1.00;0.20;;;;;;;;;;4999138;28;20030;-85
2022/07/03 12:21:14;;;;;;;1.40;0.20;;;;;;;;;;5048646;28;20499;-85
2022/07/03 12:23:50;;;;;;;1.67;0.40;;;;;;;;;;4999471;28;20042;-84
2022/07/03 12:26:32;;;;;;;0.63;0.30;;;;;;;;;;5032096;28;20028;-85
2022/07/03 12:29:05;;;;;;;0.60;0.15;;;;;;;;;;4999227;28;20041;-84
2022/07/03 12:31:31;;;;;;;1.90;0.30;;;;;;;;;;4998906;28;20582;-85
2022/07/03 12:33:58;;;;;;;0.45;0.20;;;;;;;;;;5048107;28;20051;-85
2022/07/03 12:36:23;;;;;;;0.43;0.22;;;;;;;;;;5015503;28;20041;-85
2022/07/03 12:38:51;;;;;;;0.60;0.20;;;;;;;;;;4999434;28;20033;-84
2022/07/03 12:41:17;;;;;;;0.80;0.30;;;;;;;;;;5031622;28;20404;-85
2022/07/03 12:43:42;;;;;;;0.85;0.10;;;;;;;;;;5015035;28;20040;-85
2022/07/03 12:46:26;;;;;;;1.15;0.20;;;;;;;;;;5028004;28;20463;-85
2022/07/03 12:48:56;;;;;;;1.15;0.50;;;;;;;;;;4995514;28;20038;-85
2022/07/03 12:51:40;;;;;;;1.35;0.45;;;;;;;;;;5030121;28;20102;-85
2022/07/03 12:54:13;;;;;;;1.85;0.52;;;;;;;;;;5015074;28;20039;-85
2022/07/03 12:56:38;;;;;;;1.50;0.60;;;;;;;;;;4999399;28;20515;-84
2022/07/03 12:59:17;;;;;;;0.90;0.40;;;;;;;;;;5015034;28;20033;-85
2022/07/03 13:01:46;;;;;;;1.38;0.60;;;;;;;;;;4985112;28;20092;-84
2022/07/03 13:04:14;;;;;;;1.27;0.30;;;;;;;;;;4982436;28;20042;-85
2022/07/03 13:06:45;;;;;;;0.90;0.40;;;;;;;;;;5015215;28;20124;-85
2022/07/03 13:09:10;;;;;;;0.70;0.30;;;;;;;;;;4999048;28;20037;-85
2022/07/03 13:11:37;;;;;;;0.60;0.30;;;;;;;;;;4982414;28;20033;-84
2022/07/03 13:14:07;;;;;;;0.43;0.20;;;;;;;;;;5015135;28;20044;-85
2022/07/03 13:16:45;;;;;;;1.65;0.50;;;;;;;;;;4998197;28;20041;-85
2022/07/03 13:19:16;;;;;;;0.93;0.40;;;;;;;;;;4997990;28;20045;-85
2022/07/03 13:21:43;;;;;;;2.45;0.60;;;;;;;;;;5031282;28;20037;-85
2022/07/03 13:24:08;;;;;;;1.65;0.40;;;;;;;;;;5014883;28;20021;-85
2022/07/03 13:26:34;;;;;;;0.90;0.40;;;;;;;;;;5031080;28;20506;-84
2022/07/03 13:28:59;;;;;;;2.35;0.60;;;;;;;;;;5030507;28;20128;-85
2022/07/03 13:31:25;;;;;;;1.75;0.50;;;;;;;;;;5030595;28;20073;-85
2022/07/03 13:33:50;;;;;;;2.00;0.47;;;;;;;;;;5014230;28;20104;-85
2022/07/03 13:36:18;;;;;;;0.95;0.50;;;;;;;;;;5030524;28;20557;-85
2022/07/03 13:38:45;;;;;;;1.55;0.57;;;;;;;;;;4982664;28;20021;-84
2022/07/03 13:41:10;;;;;;;1.05;0.40;;;;;;;;;;5030796;28;20040;-84
2022/07/03 13:43:35;;;;;;;0.80;0.47;;;;;;;;;;4998042;28;20399;-85
2022/07/03 13:46:01;;;;;;;1.00;0.50;;;;;;;;;;5030307;28;20037;-85
2022/07/03 13:48:26;;;;;;;0.88;0.35;;;;;;;;;;4997876;28;20034;-85
2022/07/03 13:50:52;;;;;;;1.30;0.47;;;;;;;;;;5027076;28;20054;-84
2022/07/03 13:53:17;;;;;;;1.17;0.50;;;;;;;;;;5044208;28;20029;-85
2022/07/03 13:55:43;;;;;;;1.15;0.43;;;;;;;;;;5043696;28;20044;-85
2022/07/03 13:58:08;;;;;;;1.20;0.47;;;;;;;;;;5027237;28;20033;-85
2022/07/03 14:00:34;;;;;;;1.45;0.38;;;;;;;;;;5010369;28;20037;-85
2022/07/03 14:03:00;;;;;;;1.30;0.50;;;;;;;;;;5026956;28;20041;-85
2022/07/03 14:05:25;;;;;;;2.03;0.60;;;;;;;;;;5027352;28;20061;-85
2022/07/03 14:07:51;;;;;;;0.82;0.30;;;;;;;;;;5043666;28;20041;-85
2022/07/03 14:10:16;;;;;;;1.00;0.40;;;;;;;;;;5044017;28;20408;-85
2022/07/03 14:12:42;;;;;;;1.60;0.40;;;;;;;;;;5010769;28;20080;-85
2022/07/03 14:15:08;;;;;;;3.05;0.45;;;;;;;;;;5029740;28;20446;-85
2022/07/03 14:17:33;;;;;;;2.30;0.50;;;;;;;;;;5030750;28;20037;-85
2022/07/03 14:19:59;;;;;;;2.92;0.47;;;;;;;;;;5034569;28;20049;-85
2022/07/03 14:22:24;;;;;;;1.13;0.40;;;;;;;;;;5014709;28;20053;-85
2022/07/03 14:24:49;;;;;;;1.77;0.40;;;;;;;;;;5014765;28;20408;-85
2022/07/03 14:32:43;;;;;;;0.82;0.25;;;;;;;;;;5014459;28;20034;-85
2022/07/03 14:35:08;;;;;;;0.95;0.30;;;;;;;;;;5014073;28;20036;-85
2022/07/03 14:37:34;;;;;;;0.55;0.25;;;;;;;;;;4998007;28;20029;-84
2022/07/03 14:39:59;;;;;;;0.65;0.28;;;;;;;;;;5014147;28;20041;-85
2022/07/03 14:42:24;;;;;;;0.85;0.30;;;;;;;;;;5014163;28;20032;-85
2022/07/03 14:44:50;;;;;;;1.95;0.30;;;;;;;;;;5033678;28;20033;-85
2022/07/03 14:47:15;;;;;;;0.50;0.20;;;;;;;;;;5033760;28;20411;-85
2022/07/03 14:49:42;;;;;;;0.93;0.52;;;;;;;;;;5030308;28;20376;-85
2022/07/03 14:52:07;;;;;;;1.45;0.43;;;;;;;;;;5014346;28;20508;-85
2022/07/03 14:54:36;;;;;;;2.35;0.43;;;;;;;;;;4997740;28;20030;-85
2022/07/03 14:57:02;;;;;;;0.98;0.30;;;;;;;;;;5014162;28;20117;-85
2022/07/03 14:59:36;;;;;;;2.08;0.20;;;;;;;;;;5013710;28;20048;-85
2022/07/03 15:02:02;;;;;;;0.60;0.30;;;;;;;;;;5030000;28;20037;-85
2022/07/03 15:04:41;;;;;;;0.52;0.20;;;;;;;;;;5013761;28;20468;-84